Time;durP1;ratioP1;P1;durP2;ratioP2;P2;SDS_P1;SDS_P2;PMS_P1;PMS_P2;Temp;Humidity;BMP_temperature;BMP_pressure;BME280_temperature;BME280_humidity;BME280_pressure;Samples;Min_cycle;Max_cycle;Signal;HPM_P1;HPM_P2
2023/05/09 00:00:49;;;;;;;5.07;4.18;;;;;;;22.50;44.41;101828.59;4995834;28;20038;-80
2023/05/09 00:03:14;;;;;;;5.80;4.70;;;;;;;22.37;44.35;101832.81;5009391;28;20048;-80
2023/05/09 00:05:40;;;;;;;5.82;4.80;;;;;;;22.56;44.31;101849.13;4989400;28;20034;-80
2023/05/09 00:08:06;;;;;;;5.20;4.60;;;;;;;22.52;44.26;101842.53;5013826;28;20860;-80
2023/05/09 00:10:31;;;;;;;5.25;4.60;;;;;;;22.43;44.11;101822.31;5004029;28;20042;-80
2023/05/09 00:12:58;;;;;;;5.60;4.75;;;;;;;22.45;44.07;101820.34;4990257;28;20098;-80
2023/05/09 00:15:24;;;;;;;5.82;4.93;;;;;;;22.37;44.22;101814.22;5005585;28;20157;-79
2023/05/09 00:17:50;;;;;;;5.35;4.53;;;;;;;22.37;44.25;101814.22;4987220;28;20049;-80
2023/05/09 00:20:16;;;;;;;7.25;5.00;;;;;;;22.50;44.31;101828.59;4986626;28;20030;-79
2023/05/09 00:22:42;;;;;;;5.90;4.90;;;;;;;22.47;44.43;101823.66;5002300;28;20053;-80
2023/05/09 00:25:08;;;;;;;6.55;4.63;;;;;;;22.41;44.14;101812.88;4982439;28;20069;-80
2023/05/09 00:27:34;;;;;;;5.47;4.43;;;;;;;22.42;44.19;101809.22;5002566;28;20060;-81
2023/05/09 00:30:00;;;;;;;5.22;4.65;;;;;;;22.26;44.47;101776.50;5003816;28;20046;-80
2023/05/09 00:32:27;;;;;;;7.22;4.75;;;;;;;22.34;44.34;101796.84;4999549;28;20106;-80
2023/05/09 00:34:53;;;;;;;5.75;4.68;;;;;;;22.36;44.20;101799.31;4998144;28;20042;-80
2023/05/09 00:37:19;;;;;;;6.50;5.07;;;;;;;22.26;44.25;101780.94;4981489;28;20057;-80
2023/05/09 00:39:49;;;;;;;4.43;3.83;;;;;;;22.40;44.43;101804.09;4996831;28;20104;-79
2023/05/09 00:42:15;;;;;;;6.22;5.00;;;;;;;22.23;44.51;101778.63;4984663;28;20509;-80
2023/05/09 00:44:41;;;;;;;5.55;4.60;;;;;;;22.34;44.59;101777.44;4984303;28;20056;-80
2023/05/09 00:47:06;;;;;;;7.43;4.88;;;;;;;22.37;44.60;101791.19;5019054;28;20033;-80
2023/05/09 00:49:32;;;;;;;5.60;4.53;;;;;;;22.38;44.59;101776.06;5002851;28;20042;-80
2023/05/09 00:51:58;;;;;;;7.18;4.53;;;;;;;22.39;44.45;101777.72;4986252;28;20041;-80
2023/05/09 00:54:24;;;;;;;4.45;3.97;;;;;;;22.35;44.34;101771.13;5005277;28;20034;-80
2023/05/09 00:56:50;;;;;;;6.30;4.40;;;;;;;22.34;44.41;101772.13;4987023;28;20050;-80
2023/05/09 00:59:16;;;;;;;5.75;4.45;;;;;;;22.29;44.21;101762.88;5020795;28;20038;-80
2023/05/09 01:01:42;;;;;;;6.65;5.03;;;;;;;22.35;44.62;101765.81;4986532;28;20069;-80
2023/05/09 01:04:09;;;;;;;5.60;4.72;;;;;;;22.29;44.55;101756.75;4989039;28;20096;-80
2023/05/09 01:06:51;;;;;;;7.13;4.65;;;;;;;22.34;44.44;101764.16;4988240;28;20030;-80
2023/05/09 01:09:49;;;;;;;5.20;4.20;;;;;;;22.33;44.56;101742.13;4985278;28;20044;-80
2023/05/09 01:12:33;;;;;;;5.57;4.65;;;;;;;22.33;44.61;101741.28;4981752;28;20042;-80
2023/05/09 01:15:43;;;;;;;6.65;5.00;;;;;;;22.31;44.68;101734.31;5004930;28;20026;-81
2023/05/09 01:18:39;;;;;;;6.15;4.38;;;;;;;22.30;44.44;101734.50;4966922;28;20068;-80
2023/05/09 01:21:10;;;;;;;6.65;4.43;;;;;;;22.28;44.46;101725.91;5008027;28;20042;-80
2023/05/09 01:24:13;;;;;;;6.30;4.60;;;;;;;22.33;44.53;101735.97;4989710;28;20453;-80
2023/05/09 01:26:46;;;;;;;7.43;6.00;;;;;;;22.27;44.29;101729.56;5004872;28;20121;-79
2023/05/09 01:29:31;;;;;;;6.22;5.00;;;;;;;22.27;44.66;101725.06;5009804;28;20034;-80
2023/05/09 01:32:00;;;;;;;7.68;4.82;;;;;;;22.16;44.73;101703.41;4990092;28;20239;-80
2023/05/09 01:34:27;;;;;;;5.50;4.25;;;;;;;22.27;44.76;101713.63;4986406;28;20384;-79
2023/05/09 01:37:00;;;;;;;6.72;4.70;;;;;;;22.22;44.68;101708.81;5003318;28;20069;-80
2023/05/09 01:39:27;;;;;;;6.35;4.72;;;;;;;22.21;44.40;101698.41;4985100;28;20034;-80
2023/05/09 01:41:56;;;;;;;6.05;4.55;;;;;;;22.24;44.69;101696.22;5005332;28;20044;-80
2023/05/09 01:44:25;;;;;;;6.80;5.20;;;;;;;22.13;44.69;101690.50;5029853;28;20065;-80
2023/05/09 01:46:53;;;;;;;5.97;4.60;;;;;;;22.20;44.57;101702.88;5038128;28;20053;-80
2023/05/09 01:49:19;;;;;;;6.78;5.22;;;;;;;22.16;44.63;101687.47;5036439;28;20037;-80
2023/05/09 01:51:47;;;;;;;8.38;4.90;;;;;;;22.06;44.63;101671.78;5004700;28;21251;-80
2023/05/09 01:54:14;;;;;;;8.32;4.57;;;;;;;22.13;44.68;101679.88;5016919;28;20037;-81
2023/05/09 01:56:42;;;;;;;6.82;4.60;;;;;;;22.25;44.75;101703.16;5016403;28;20125;-80
2023/05/09 01:59:14;;;;;;;7.70;4.93;;;;;;;22.15;44.82;101697.28;5006892;28;20044;-81
2023/05/09 02:01:42;;;;;;;6.32;4.82;;;;;;;22.14;44.43;101697.44;5003688;28;20042;-81
2023/05/09 02:04:07;;;;;;;8.05;5.15;;;;;;;22.06;44.73;101677.06;5026552;28;20033;-81
2023/05/09 02:06:34;;;;;;;6.90;5.13;;;;;;;22.16;44.84;101698.09;5006280;28;20056;-80
2023/05/09 02:09:00;;;;;;;7.32;5.45;;;;;;;22.21;44.69;101701.03;5006936;28;20041;-81
2023/05/09 02:11:26;;;;;;;7.22;4.60;;;;;;;22.21;44.72;101693.09;4989447;28;20039;-80
2023/05/09 02:13:51;;;;;;;5.70;4.93;;;;;;;22.20;44.54;101694.09;5022691;28;20038;-81
2023/05/09 02:16:18;;;;;;;6.78;4.63;;;;;;;22.20;44.86;101688.78;4993896;28;20034;-81
2023/05/09 02:18:43;;;;;;;6.90;4.95;;;;;;;22.09;44.56;101674.09;5021756;28;20038;-80
2023/05/09 02:21:09;;;;;;;7.53;5.25;;;;;;;22.21;44.50;101688.59;5026655;28;20404;-80
2023/05/09 02:23:34;;;;;;;7.18;5.20;;;;;;;22.19;44.70;101698.56;5018593;28;20056;-80
2023/05/09 02:26:01;;;;;;;6.57;5.25;;;;;;;21.98;44.78;101661.19;5016722;28;20049;-80
2023/05/09 02:28:28;;;;;;;7.03;5.32;;;;;;;22.06;44.64;101665.66;5023147;28;20102;-80
2023/05/09 02:30:55;;;;;;;7.70;4.93;;;;;;;22.19;44.81;101681.81;5013049;28;20048;-80
2023/05/09 02:33:22;;;;;;;6.97;5.20;;;;;;;22.07;44.51;101664.63;5022443;28;20056;-80
2023/05/09 02:35:48;;;;;;;7.05;5.03;;;;;;;22.10;44.69;101667.78;5027843;28;20026;-80
2023/05/09 02:38:14;;;;;;;7.20;5.20;;;;;;;22.07;44.42;101665.47;5024416;28;20072;-80
2023/05/09 02:40:42;;;;;;;8.75;5.50;;;;;;;22.16;44.84;101679.53;4978956;28;20069;-80
2023/05/09 02:43:08;;;;;;;6.00;4.68;;;;;;;22.13;44.75;101663.97;5008749;28;20064;-80
2023/05/09 02:45:34;;;;;;;7.05;5.30;;;;;;;22.15;44.68;101670.75;5005491;28;20050;-82
2023/05/09 02:48:01;;;;;;;6.60;4.63;;;;;;;22.03;44.60;101649.06;5007995;28;20042;-80
2023/05/09 02:50:27;;;;;;;7.28;4.90;;;;;;;22.14;44.74;101660.31;5013798;28;20045;-80
2023/05/09 02:52:52;;;;;;;5.82;4.85;;;;;;;22.18;44.77;101673.03;5026536;28;20184;-80
2023/05/09 02:55:18;;;;;;;6.22;4.70;;;;;;;22.13;44.54;101658.66;5017170;28;20075;-79
2023/05/09 02:57:44;;;;;;;6.78;4.97;;;;;;;22.08;44.74;101655.69;5009390;28;20033;-80
2023/05/09 03:00:10;;;;;;;7.72;5.32;;;;;;;22.12;44.76;101657.84;4994682;28;20049;-79
2023/05/09 03:02:36;;;;;;;7.35;5.45;;;;;;;21.93;45.11;101637.84;4993859;28;20041;-81
2023/05/09 03:05:03;;;;;;;6.82;4.72;;;;;;;22.02;45.00;101639.44;5043481;28;20048;-80
2023/05/09 03:07:29;;;;;;;7.63;5.20;;;;;;;22.12;44.81;101662.31;5031110;28;20047;-80
2023/05/09 03:09:55;;;;;;;8.75;5.88;;;;;;;22.15;44.67;101656.66;5011033;28;20066;-80
2023/05/09 03:12:21;;;;;;;7.50;4.95;;;;;;;21.95;44.84;101629.72;5013226;28;20088;-81
2023/05/09 03:14:50;;;;;;;;;;;;;;;22.08;44.86;101653.03;5027344;28;20533;-81
2023/05/09 03:17:20;;;;;;;7.40;5.38;;;;;;;21.91;44.94;101616.00;5039672;28;19948;-80
2023/05/09 03:19:47;;;;;;;6.95;5.57;;;;;;;22.11;44.76;101645.56;5022994;28;20042;-80
2023/05/09 03:22:13;;;;;;;10.63;5.55;;;;;;;22.02;44.91;101628.84;5011080;28;20611;-81
2023/05/09 03:24:45;;;;;;;7.60;5.20;;;;;;;22.09;44.71;101636.16;5004926;28;20113;-80
2023/05/09 03:27:10;;;;;;;6.53;4.85;;;;;;;21.92;44.80;101600.91;5037771;28;20018;-79
2023/05/09 03:29:36;;;;;;;8.45;6.32;;;;;;;22.11;45.00;101628.84;4979724;28;20034;-80
2023/05/09 03:32:03;;;;;;;12.23;5.40;;;;;;;21.95;44.96;101601.38;5020900;28;20068;-80
2023/05/09 03:34:29;;;;;;;8.93;5.30;;;;;;;22.12;44.56;101623.34;5006001;28;20030;-81
2023/05/09 03:36:55;;;;;;;7.30;5.15;;;;;;;21.98;44.70;101592.25;5007220;28;20038;-81
2023/05/09 03:39:21;;;;;;;7.40;5.38;;;;;;;22.18;44.45;101624.47;5038816;28;20034;-79
2023/05/09 03:41:52;;;;;;;7.13;5.28;;;;;;;22.09;44.90;101609.63;5022645;28;20029;-81
2023/05/09 03:44:17;;;;;;;8.77;5.82;;;;;;;22.11;44.98;101612.91;5006234;28;20045;-81
2023/05/09 03:46:43;;;;;;;8.55;5.80;;;;;;;22.17;44.60;101618.34;5006234;28;20041;-81
2023/05/09 03:49:09;;;;;;;7.07;5.45;;;;;;;22.20;44.78;101620.63;5008015;28;20377;-81
2023/05/09 03:51:35;;;;;;;8.65;5.13;;;;;;;22.17;44.50;101613.03;5023488;28;20053;-81
2023/05/09 03:54:04;;;;;;;6.90;4.75;;;;;;;21.96;44.63;101584.47;5005905;28;20095;-81
2023/05/09 03:56:30;;;;;;;7.28;5.13;;;;;;;22.16;44.61;101615.88;5004681;28;20546;-80
2023/05/09 03:58:56;;;;;;;8.65;5.35;;;;;;;22.13;44.78;101605.59;5024502;28;20042;-81
2023/05/09 04:01:22;;;;;;;7.78;5.18;;;;;;;21.99;44.89;101589.41;4991571;28;20040;-81
2023/05/09 04:03:49;;;;;;;7.82;5.47;;;;;;;21.88;44.91;101565.94;5006200;28;20030;-81
2023/05/09 04:06:15;;;;;;;7.88;5.13;;;;;;;22.08;44.94;101603.47;5021548;28;20025;-81
2023/05/09 04:08:43;;;;;;;7.30;5.38;;;;;;;22.06;44.71;101592.19;5021570;28;20455;-81
2023/05/09 04:11:08;;;;;;;7.35;5.72;;;;;;;22.06;44.71;101586.91;5009302;28;20049;-81
2023/05/09 04:13:36;;;;;;;6.38;4.97;;;;;;;22.08;44.75;101592.84;5021140;28;20045;-80
2023/05/09 04:16:10;;;;;;;7.57;5.30;;;;;;;22.00;44.81;101583.09;5007625;28;20042;-81
2023/05/09 04:18:38;;;;;;;6.95;5.40;;;;;;;21.94;44.93;101564.44;5004084;28;20048;-79
2023/05/09 04:21:04;;;;;;;7.32;5.40;;;;;;;22.00;44.71;101571.66;4990204;28;20045;-80
2023/05/09 04:23:30;;;;;;;8.30;5.18;;;;;;;22.08;45.04;101595.50;5022973;28;20042;-81
2023/05/09 04:25:58;;;;;;;6.75;4.82;;;;;;;22.08;45.08;101599.97;5005149;28;20593;-80
2023/05/09 04:28:24;;;;;;;7.13;4.65;;;;;;;21.98;44.85;101585.09;5020141;28;20037;-80
2023/05/09 04:30:49;;;;;;;7.18;5.40;;;;;;;21.98;44.96;101585.09;5010498;28;20284;-80
2023/05/09 04:33:16;;;;;;;6.50;4.88;;;;;;;22.08;44.72;101584.06;5003302;28;20037;-80
2023/05/09 04:35:43;;;;;;;5.85;4.30;;;;;;;22.08;44.70;101578.75;5024018;28;20049;-80
2023/05/09 04:38:10;;;;;;;5.60;4.80;;;;;;;21.95;44.85;101561.59;5034498;28;20033;-83
2023/05/09 04:40:36;;;;;;;5.93;4.82;;;;;;;21.91;45.12;101560.31;5012350;28;20235;-80
2023/05/09 04:43:03;;;;;;;6.80;4.53;;;;;;;22.00;44.82;101575.16;5022975;28;20138;-80
2023/05/09 04:45:29;;;;;;;6.97;5.63;;;;;;;22.05;44.86;101574.63;5027189;28;20041;-81
2023/05/09 04:47:57;;;;;;;6.18;4.57;;;;;;;22.03;44.93;101577.44;5003075;28;20062;-81
2023/05/09 04:50:23;;;;;;;5.80;4.57;;;;;;;22.01;44.74;101568.84;5005802;28;20034;-81
2023/05/09 04:52:49;;;;;;;6.60;4.80;;;;;;;22.01;44.90;101570.66;5018057;28;20153;-80
2023/05/09 04:55:14;;;;;;;6.38;4.20;;;;;;;21.94;44.97;101551.16;5021179;28;20472;-81
2023/05/09 04:57:43;;;;;;;6.30;4.72;;;;;;;21.87;44.92;101551.03;5021703;28;20034;-81
2023/05/09 05:00:10;;;;;;;6.60;4.80;;;;;;;22.05;45.00;101571.16;5006948;28;20037;-80
2023/05/09 05:02:36;;;;;;;6.43;4.88;;;;;;;22.01;44.87;101568.84;5005277;28;20048;-81
2023/05/09 05:05:03;;;;;;;5.68;4.95;;;;;;;21.92;44.98;101558.47;5003918;28;20048;-83
2023/05/09 05:07:29;;;;;;;6.60;4.85;;;;;;;21.66;45.07;101517.19;5003659;28;20037;-80
2023/05/09 05:09:55;;;;;;;6.20;4.70;;;;;;;21.85;45.14;101541.59;5003788;28;20108;-80
2023/05/09 05:12:21;;;;;;;5.60;4.65;;;;;;;22.00;45.24;101571.66;5001663;28;20494;-79
2023/05/09 05:14:47;;;;;;;5.75;4.78;;;;;;;21.82;45.24;101536.66;5036349;28;20045;-80
2023/05/09 05:17:17;;;;;;;;;;;;;;;21.99;45.14;101567.38;5018902;28;20029;-80
2023/05/09 05:19:44;;;;;;;5.45;4.55;;;;;;;21.78;45.30;101533.53;5002313;28;20653;-83
2023/05/09 05:22:11;;;;;;;5.60;4.90;;;;;;;21.97;45.43;101567.53;5005965;28;20447;-81
2023/05/09 05:24:39;;;;;;;5.80;4.90;;;;;;;21.85;45.09;101533.66;5018816;28;20034;-81
2023/05/09 05:27:05;;;;;;;5.22;4.38;;;;;;;21.89;45.13;101546.38;4985576;28;20041;-80
2023/05/09 05:29:30;;;;;;;6.60;4.78;;;;;;;21.80;45.14;101544.78;5001709;28;20062;-80
2023/05/09 05:31:56;;;;;;;5.65;4.63;;;;;;;21.97;45.01;101548.97;5003398;28;20042;-83
2023/05/09 05:34:21;;;;;;;4.82;4.22;;;;;;;21.89;44.90;101526.97;5014362;28;20037;-83
2023/05/09 05:36:47;;;;;;;4.72;4.18;;;;;;;22.02;45.26;101553.75;4992116;28;20051;-83
2023/05/09 05:39:13;;;;;;;5.38;4.57;;;;;;;21.80;45.22;101526.22;5004615;28;20037;-83
2023/05/09 05:41:38;;;;;;;5.55;4.20;;;;;;;21.96;45.07;101552.63;5005693;28;20030;-82
2023/05/09 05:44:06;;;;;;;5.60;4.70;;;;;;;21.92;45.18;101546.03;5018413;28;20030;-83
2023/05/09 05:46:32;;;;;;;5.18;4.28;;;;;;;21.87;44.94;101536.94;5002950;28;20049;-83
2023/05/09 05:48:58;;;;;;;4.82;4.32;;;;;;;21.89;45.10;101530.47;5002854;28;20053;-83
2023/05/09 05:51:24;;;;;;;5.13;4.40;;;;;;;21.96;45.06;101538.56;5006572;28;20034;-83
2023/05/09 05:53:50;;;;;;;5.47;4.20;;;;;;;21.76;45.25;101508.22;5006938;28;20192;-83
2023/05/09 05:56:16;;;;;;;6.05;4.43;;;;;;;21.90;45.27;101529.50;5005170;28;20112;-83
2023/05/09 05:58:42;;;;;;;5.68;4.70;;;;;;;21.87;45.15;101526.34;5039509;28;20041;-84
2023/05/09 06:01:07;;;;;;;4.85;4.30;;;;;;;21.92;45.21;101524.00;5015161;28;20385;-83
2023/05/09 06:03:33;;;;;;;4.22;3.83;;;;;;;21.94;45.08;101517.53;5025974;28;20039;-83
2023/05/09 06:06:03;;;;;;;5.90;4.53;;;;;;;21.98;45.20;101520.63;5012292;28;20053;-83
2023/05/09 06:08:28;;;;;;;5.70;4.25;;;;;;;21.83;45.16;101491.41;5025777;28;20038;-84
2023/05/09 06:10:54;;;;;;;5.13;4.60;;;;;;;21.96;45.13;101510.22;5004642;28;20037;-82
2023/05/09 06:13:19;;;;;;;5.10;4.25;;;;;;;21.83;45.09;101479.97;5008094;28;20068;-83
2023/05/09 06:15:53;;;;;;;4.53;4.00;;;;;;;21.76;45.15;101476.41;5014602;28;20068;-83
2023/05/09 06:18:19;;;;;;;4.50;3.97;;;;;;;21.94;45.53;101514.03;5005376;28;20042;-83
2023/05/09 06:20:44;;;;;;;5.05;3.85;;;;;;;21.89;45.27;101489.88;5008019;28;20072;-83
2023/05/09 06:23:10;;;;;;;4.60;3.70;;;;;;;21.94;45.25;101503.44;5012360;28;20034;-81
2023/05/09 06:25:35;;;;;;;4.88;4.30;;;;;;;21.89;45.38;101495.16;5022692;28;20034;-83
2023/05/09 06:28:01;;;;;;;4.50;3.70;;;;;;;21.82;45.34;101475.69;5007819;28;20056;-83
2023/05/09 06:30:26;;;;;;;5.00;4.30;;;;;;;21.86;45.20;101482.28;5036268;28;20045;-83
2023/05/09 06:32:52;;;;;;;5.03;3.83;;;;;;;21.93;45.24;101485.88;5024984;28;20038;-80
2023/05/09 06:35:18;;;;;;;5.50;4.40;;;;;;;21.94;45.13;101482.22;5026133;28;20052;-80
2023/05/09 06:37:43;;;;;;;5.65;3.92;;;;;;;21.77;45.38;101462.97;5010706;28;20037;-83
2023/05/09 06:40:09;;;;;;;5.07;4.43;;;;;;;21.82;45.51;101462.41;5018985;28;20041;-82
2023/05/09 06:42:34;;;;;;;5.78;3.90;;;;;;;21.77;45.12;101462.13;5008913;28;20017;-82
2023/05/09 06:45:00;;;;;;;5.50;4.22;;;;;;;21.93;45.33;101473.44;5006708;28;20060;-82
2023/05/09 06:47:25;;;;;;;5.30;4.10;;;;;;;21.93;45.18;101469.97;5007007;28;20045;-82
2023/05/09 06:49:51;;;;;;;5.38;4.35;;;;;;;21.72;45.58;101438.78;5023537;28;20041;-82
2023/05/09 06:52:16;;;;;;;5.18;4.25;;;;;;;21.88;45.62;101467.00;5005185;28;20046;-82
2023/05/09 06:54:42;;;;;;;6.55;4.65;;;;;;;21.82;45.49;101454.47;5021846;28;20049;-80
2023/05/09 06:57:08;;;;;;;5.13;4.50;;;;;;;21.93;45.48;101462.00;5007619;28;20050;-80
2023/05/09 06:59:33;;;;;;;5.57;4.07;;;;;;;21.80;45.40;101440.56;5017880;28;20041;-80
2023/05/09 07:01:59;;;;;;;4.78;4.00;;;;;;;21.78;45.40;101446.06;5019566;28;20144;-80
2023/05/09 07:04:25;;;;;;;6.07;4.55;;;;;;;21.93;45.48;101459.38;5014824;28;20036;-80
2023/05/09 07:06:50;;;;;;;4.78;3.92;;;;;;;21.84;45.61;101447.97;5022141;28;20053;-81
2023/05/09 07:09:19;;;;;;;5.60;4.55;;;;;;;21.88;45.38;101453.75;5018682;28;20047;-80
2023/05/09 07:11:45;;;;;;;5.40;4.50;;;;;;;21.70;45.56;101424.88;5019936;28;20117;-79
2023/05/09 07:14:10;;;;;;;7.28;4.20;;;;;;;21.80;45.55;101436.09;5002032;28;20033;-81
2023/05/09 07:16:36;;;;;;;6.13;4.47;;;;;;;21.78;45.65;101429.31;5019845;28;20065;-82
2023/05/09 07:19:01;;;;;;;5.35;4.53;;;;;;;21.82;45.32;101428.78;5023119;28;20038;-82
2023/05/09 07:21:27;;;;;;;7.63;5.10;;;;;;;21.89;46.05;101431.53;5022505;28;20250;-82
2023/05/09 07:23:52;;;;;;;5.57;4.53;;;;;;;21.91;45.37;101437.50;5019568;28;20447;-81
2023/05/09 07:26:18;;;;;;;4.75;4.25;;;;;;;21.90;45.03;101412.81;5008750;28;20049;-83
2023/05/09 07:28:43;;;;;;;5.15;4.60;;;;;;;21.94;44.98;101405.31;5007876;28;20961;-82
2023/05/09 07:31:09;;;;;;;7.85;4.30;;;;;;;22.15;44.71;101421.41;5026820;28;20042;-83
2023/05/09 07:33:34;;;;;;;6.68;5.00;;;;;;;21.84;44.43;101354.38;4991326;28;20050;-82
2023/05/09 07:36:00;;;;;;;6.50;4.65;;;;;;;22.34;44.16;101419.22;5025331;28;20041;-81
2023/05/09 07:38:25;;;;;;;5.13;4.20;;;;;;;22.38;43.76;101404.56;5005100;28;20073;-82
2023/05/09 07:40:52;;;;;;;5.20;4.35;;;;;;;22.49;43.48;101412.09;5008423;28;20069;-82
2023/05/09 07:43:18;;;;;;;5.88;4.63;;;;;;;22.39;43.49;101404.38;5006189;28;20090;-82
2023/05/09 07:45:43;;;;;;;5.85;4.57;;;;;;;22.51;43.63;101410.91;5009520;28;20081;-81
2023/05/09 07:48:09;;;;;;;5.60;4.65;;;;;;;22.63;43.45;101407.78;5020704;28;20042;-83
2023/05/09 07:50:34;;;;;;;5.68;4.35;;;;;;;22.69;42.94;101407.03;5023935;28;20038;-83
2023/05/09 07:53:00;;;;;;;6.32;4.95;;;;;;;22.14;43.00;101303.03;5001654;28;20432;-83
2023/05/09 07:55:25;;;;;;;6.75;4.55;;;;;;;22.61;43.17;101379.56;5025264;28;20034;-83
2023/05/09 07:57:51;;;;;;;5.47;4.28;;;;;;;22.67;42.95;101387.81;4988821;28;20034;-81
2023/05/09 08:00:22;;;;;;;6.05;5.20;;;;;;;22.64;43.04;101386.38;4988034;28;20567;-82
2023/05/09 08:02:48;;;;;;;5.47;4.25;;;;;;;22.72;42.82;101385.44;5000383;28;20038;-82
2023/05/09 08:05:14;;;;;;;6.38;4.57;;;;;;;22.80;42.68;101387.97;5007663;28;20101;-82
2023/05/09 08:07:39;;;;;;;7.20;5.47;;;;;;;22.68;42.97;101374.38;5026279;28;20037;-82
2023/05/09 08:10:05;;;;;;;6.63;5.28;;;;;;;22.72;42.84;101380.13;5036144;28;20033;-82
2023/05/09 08:12:31;;;;;;;7.43;5.07;;;;;;;22.63;43.01;101358.19;5020592;28;20056;-83
2023/05/09 08:14:57;;;;;;;6.22;4.90;;;;;;;22.67;43.19;101364.75;5010559;28;20041;-83
2023/05/09 08:17:22;;;;;;;7.57;4.90;;;;;;;22.69;42.66;101359.25;5027009;28;20048;-82
2023/05/09 08:19:47;;;;;;;7.63;5.13;;;;;;;22.53;42.79;101337.22;5018399;28;20582;-82
2023/05/09 08:22:19;;;;;;;7.30;5.03;;;;;;;22.53;42.96;101337.22;5035515;28;20034;-80
2023/05/09 08:24:45;;;;;;;6.93;5.00;;;;;;;22.70;43.05;101363.56;5018065;28;20042;-82
2023/05/09 08:27:12;;;;;;;6.82;4.78;;;;;;;22.55;42.99;101347.66;5005816;28;20061;-82
2023/05/09 08:29:42;;;;;;;6.10;4.70;;;;;;;22.75;43.00;101359.34;5003435;28;20476;-80
2023/05/09 08:32:08;;;;;;;6.38;4.68;;;;;;;22.66;42.51;101336.56;5020674;28;20030;-80
2023/05/09 08:34:34;;;;;;;7.53;5.03;;;;;;;22.68;43.05;101349.66;5001593;28;20046;-82
2023/05/09 08:37:03;;;;;;;6.97;5.10;;;;;;;22.69;42.82;101343.34;5001967;28;20164;-82
2023/05/09 08:39:29;;;;;;;6.35;4.78;;;;;;;22.73;43.01;101355.22;5023041;28;20058;-84
2023/05/09 08:42:00;;;;;;;7.00;5.03;;;;;;;22.57;43.00;101333.19;5003478;28;20475;-83
2023/05/09 08:44:26;;;;;;;8.77;4.88;;;;;;;22.53;42.80;101321.28;5016675;28;20076;-84
2023/05/09 08:46:57;;;;;;;7.35;5.15;;;;;;;22.71;42.90;101347.44;5032356;28;20050;-82
2023/05/09 08:49:23;;;;;;;8.35;5.43;;;;;;;22.58;43.19;101304.81;5022119;28;20045;-84
2023/05/09 08:51:49;;;;;;;7.55;5.55;;;;;;;23.23;42.53;101340.28;4978891;28;20038;-84
2023/05/09 08:54:15;;;;;;;7.53;5.30;;;;;;;23.25;42.42;101330.28;5003617;28;20036;-81
2023/05/09 08:56:41;;;;;;;8.52;5.70;;;;;;;23.00;42.74;101293.47;4990422;28;20196;-81
2023/05/09 08:59:07;;;;;;;9.70;6.43;;;;;;;23.20;42.70;101322.88;5022527;28;20037;-81
2023/05/09 09:01:36;;;;;;;9.68;6.57;;;;;;;23.09;43.03;101308.25;4970247;28;20566;-82
2023/05/09 09:04:06;;;;;;;9.80;5.75;;;;;;;23.30;43.12;101325.19;5007335;28;20666;-80
2023/05/09 09:06:35;;;;;;;8.95;6.15;;;;;;;23.13;43.13;101303.38;5001928;28;20034;-82
2023/05/09 09:09:04;;;;;;;8.13;6.27;;;;;;;23.23;43.41;101319.84;5034455;28;20050;-80
2023/05/09 09:11:30;;;;;;;8.30;6.20;;;;;;;23.19;43.46;101314.09;4978922;28;20097;-81
2023/05/09 09:14:00;;;;;;;8.70;5.40;;;;;;;22.92;43.85;101280.28;5001792;28;20072;-82
2023/05/09 09:16:28;;;;;;;9.07;5.70;;;;;;;23.04;44.10;101300.03;5034419;28;20034;-78
2023/05/09 09:18:55;;;;;;;8.60;5.80;;;;;;;22.95;44.16;101277.25;5021983;28;20088;-82
2023/05/09 09:21:22;;;;;;;10.05;6.35;;;;;;;23.02;43.96;101287.97;5000142;28;20048;-80
2023/05/09 09:23:48;;;;;;;12.02;6.13;;;;;;;23.09;43.89;101302.13;5015487;28;20053;-80
2023/05/09 09:26:14;;;;;;;10.10;6.60;;;;;;;22.98;44.60;101292.84;4989256;28;20240;-80
2023/05/09 09:28:40;;;;;;;10.65;6.72;;;;;;;22.86;44.56;101273.91;5002883;28;20033;-79
2023/05/09 09:31:20;;;;;;;12.65;7.03;;;;;;;22.84;44.46;101267.97;4996900;28;20298;-79
2023/05/09 09:33:46;;;;;;;11.20;6.47;;;;;;;22.94;44.60;101272.97;4993928;28;20034;-81
2023/05/09 09:36:11;;;;;;;7.90;5.72;;;;;;;22.90;44.39;101277.84;5016170;28;20048;-81
2023/05/09 09:38:42;;;;;;;7.63;5.53;;;;;;;22.88;44.40;101266.59;4999720;28;20080;-83
2023/05/09 09:41:11;;;;;;;9.88;6.57;;;;;;;22.62;44.71;101231.75;5004015;28;20111;-82
2023/05/09 09:43:36;;;;;;;9.57;6.07;;;;;;;22.59;44.65;101235.59;4978479;28;20030;-80
2023/05/09 09:46:03;;;;;;;8.65;5.60;;;;;;;22.90;44.46;101271.69;5022218;28;20042;-81
2023/05/09 09:48:33;;;;;;;9.40;6.00;;;;;;;22.84;44.83;101265.31;5015260;28;20393;-84
2023/05/09 09:51:17;;;;;;;9.20;6.25;;;;;;;22.80;44.75;101263.19;5004199;28;20046;-84
2023/05/09 09:53:43;;;;;;;8.50;5.78;;;;;;;22.86;44.57;101273.09;4983895;28;20061;-81
2023/05/09 09:56:10;;;;;;;9.02;5.80;;;;;;;22.82;44.47;101254.06;5021560;28;20041;-82
2023/05/09 09:58:35;;;;;;;8.45;5.22;;;;;;;22.99;43.92;101278.53;5011955;28;20163;-81
2023/05/09 10:01:15;;;;;;;8.93;6.25;;;;;;;22.95;44.39;101271.94;5020370;28;20057;-82
2023/05/09 10:03:43;;;;;;;8.40;5.72;;;;;;;23.07;43.94;101273.09;4984347;28;20201;-81
2023/05/09 10:06:13;;;;;;;8.35;4.80;;;;;;;23.11;43.78;101278.84;5000013;28;20403;-81
2023/05/09 10:08:40;;;;;;;8.32;5.20;;;;;;;23.09;43.99;101273.72;5000570;28;20050;-84
2023/05/09 10:11:06;;;;;;;7.10;5.25;;;;;;;23.01;44.20;101270.38;5017344;28;20085;-83
2023/05/09 10:13:36;;;;;;;8.02;5.60;;;;;;;22.71;44.08;101235.13;4989304;28;20033;-82
2023/05/09 10:16:03;;;;;;;7.85;5.85;;;;;;;22.89;44.49;101264.75;5017046;28;21283;-83
2023/05/09 10:18:29;;;;;;;6.95;5.15;;;;;;;22.78;44.16;101246.63;4999406;28;20428;-82
2023/05/09 10:21:02;;;;;;;7.22;5.50;;;;;;;22.64;44.51;101235.06;5016015;28;20029;-82
2023/05/09 10:23:35;;;;;;;8.07;5.25;;;;;;;22.75;44.43;101255.78;4994327;28;20041;-83
2023/05/09 10:26:05;;;;;;;7.20;5.15;;;;;;;22.75;44.64;101253.13;5016987;28;20046;-80
2023/05/09 10:28:33;;;;;;;7.82;5.55;;;;;;;22.66;44.48;101240.19;5010854;28;20034;-82
2023/05/09 10:31:18;;;;;;;7.82;5.85;;;;;;;22.66;44.47;101241.00;5000450;28;20033;-83
2023/05/09 10:33:48;;;;;;;6.95;5.18;;;;;;;22.71;44.85;101254.53;5007633;28;20038;-82
2023/05/09 10:36:19;;;;;;;6.03;4.82;;;;;;;22.65;44.58;101241.19;4993810;28;20045;-83
2023/05/09 10:38:47;;;;;;;8.15;5.75;;;;;;;22.45;44.90;101203.84;5032329;28;20045;-83
2023/05/09 10:41:14;;;;;;;7.72;5.18;;;;;;;22.66;44.75;101243.66;4995393;28;20041;-82
2023/05/09 10:43:41;;;;;;;11.88;6.57;;;;;;;22.67;44.91;101237.34;5025569;28;20483;-84
2023/05/09 10:46:07;;;;;;;9.00;5.88;;;;;;;22.56;44.70;101224.56;4972821;28;20061;-82
2023/05/09 10:48:34;;;;;;;6.63;5.03;;;;;;;22.56;44.75;101221.91;5002837;28;20037;-83
2023/05/09 10:51:03;;;;;;;7.63;5.35;;;;;;;22.61;44.67;101232.75;5020704;28;20066;-82
2023/05/09 10:53:43;;;;;;;7.07;5.30;;;;;;;22.59;44.62;101217.03;5011285;28;20049;-83
2023/05/09 10:56:21;;;;;;;7.47;5.53;;;;;;;22.51;44.75;101209.19;5003476;28;20418;-82
2023/05/09 10:58:47;;;;;;;6.85;5.43;;;;;;;22.38;44.71;101179.84;5022122;28;20046;-83
2023/05/09 11:01:12;;;;;;;6.90;4.72;;;;;;;22.40;44.79;101177.00;4994848;28;20060;-82
2023/05/09 11:03:55;;;;;;;6.80;4.93;;;;;;;22.53;44.62;101193.91;5024348;28;20038;-83
2023/05/09 11:06:44;;;;;;;8.18;5.45;;;;;;;22.69;44.52;101208.75;5012911;28;20045;-82
2023/05/09 11:09:28;;;;;;;6.70;4.82;;;;;;;22.67;44.56;101213.44;5010426;28;20097;-82
2023/05/09 11:11:56;;;;;;;6.97;5.05;;;;;;;22.54;44.57;101190.25;5001436;28;20046;-83
2023/05/09 11:14:29;;;;;;;6.95;4.65;;;;;;;22.67;44.76;101205.47;5007869;28;20084;-82
2023/05/09 11:17:03;;;;;;;6.53;4.70;;;;;;;22.65;44.61;101212.81;5021542;28;20022;-83
2023/05/09 11:19:44;;;;;;;6.15;4.88;;;;;;;22.64;44.72;101205.03;4987392;28;20048;-83
2023/05/09 11:22:27;;;;;;;6.00;4.47;;;;;;;22.58;44.84;101177.41;5012314;28;20045;-80
2023/05/09 11:25:11;;;;;;;6.82;4.57;;;;;;;22.60;44.52;101191.31;4985461;28;20042;-80
2023/05/09 11:27:43;;;;;;;7.65;4.40;;;;;;;22.64;44.92;101200.56;5017344;28;20034;-79